Time;durP1;ratioP1;P1;durP2;ratioP2;P2;SDS_P1;SDS_P2;PMS_P1;PMS_P2;Temp;Humidity;BMP_temperature;BMP_pressure;BME280_temperature;BME280_humidity;BME280_pressure;Samples;Min_cycle;Max_cycle;Signal;HPM_P1;HPM_P2
2022/03/25 00:00:16;;;;;;;10.53;7.77;;;;;;;11.20;38.27;99665.50;5065660;28;20212;-68
2022/03/25 00:02:43;;;;;;;7.87;7.17;;;;;;;11.16;37.99;99673.31;5061730;28;20203;-68
2022/03/25 00:05:10;;;;;;;7.37;6.80;;;;;;;11.13;38.47;99666.53;5064374;28;20196;-69
2022/03/25 00:07:38;;;;;;;6.97;6.37;;;;;;;11.05;38.34;99676.16;5065778;28;20222;-69
2022/03/25 00:10:06;;;;;;;9.20;6.90;;;;;;;11.04;38.08;99659.09;5062675;28;20207;-68
2022/03/25 00:12:33;;;;;;;8.10;7.47;;;;;;;11.01;38.65;99669.47;5059076;28;20197;-68
2022/03/25 00:15:01;;;;;;;10.33;6.90;;;;;;;11.03;38.28;99658.25;5063181;28;20197;-67
2022/03/25 00:17:28;;;;;;;9.23;7.27;;;;;;;10.98;38.39;99655.00;5059700;28;20201;-68
2022/03/25 00:19:55;;;;;;;9.43;7.40;;;;;;;10.99;38.79;99664.34;5063932;28;20204;-68
2022/03/25 00:22:22;;;;;;;11.10;7.60;;;;;;;11.03;38.45;99662.53;5062907;28;20212;-68
2022/03/25 00:24:49;;;;;;;8.20;7.27;;;;;;;11.06;38.29;99657.31;5065590;28;20207;-69
2022/03/25 00:27:17;;;;;;;8.77;7.90;;;;;;;11.04;38.32;99653.97;5056966;28;20207;-69
2022/03/25 00:29:44;;;;;;;8.53;7.33;;;;;;;11.01;38.31;99654.06;5061746;28;20201;-68
2022/03/25 00:32:13;;;;;;;7.90;6.40;;;;;;;10.84;38.74;99641.69;5065905;28;20211;-67
2022/03/25 00:34:40;;;;;;;7.10;6.50;;;;;;;10.90;38.40;99650.94;5061503;28;20651;-68
2022/03/25 00:37:06;;;;;;;8.53;5.93;;;;;;;10.79;39.20;99653.78;5065850;28;20196;-69
2022/03/25 00:39:33;;;;;;;7.30;6.60;;;;;;;10.82;38.94;99658.03;5060683;28;20204;-68
2022/03/25 00:42:00;;;;;;;11.50;7.33;;;;;;;10.71;39.24;99648.03;5063307;28;20222;-68
2022/03/25 00:44:27;;;;;;;7.73;6.90;;;;;;;10.78;39.20;99651.28;5058608;28;20292;-68
2022/03/25 00:46:54;;;;;;;7.33;6.60;;;;;;;10.67;39.16;99630.19;5064875;28;20287;-68
2022/03/25 00:49:22;;;;;;;7.53;6.90;;;;;;;10.81;38.45;99646.91;5070605;28;20634;-67
2022/03/25 00:51:49;;;;;;;14.23;7.00;;;;;;;10.91;38.29;99657.75;5068080;28;20679;-69
2022/03/25 00:54:16;;;;;;;8.47;7.70;;;;;;;10.94;38.54;99652.53;5067416;28;20288;-68
2022/03/25 00:56:43;;;;;;;8.20;6.57;;;;;;;10.96;38.63;99645.63;5057388;28;20232;-68
2022/03/25 00:59:10;;;;;;;7.53;6.93;;;;;;;10.90;38.68;99651.78;5051891;28;20252;-68
2022/03/25 01:01:38;;;;;;;10.83;6.73;;;;;;;10.91;39.45;99655.19;5059967;28;20207;-68
2022/03/25 01:04:05;;;;;;;8.53;7.57;;;;;;;10.85;39.28;99640.81;5058525;28;20196;-68
2022/03/25 01:06:33;;;;;;;12.57;7.77;;;;;;;10.83;39.11;99649.41;5052337;28;20197;-68
2022/03/25 01:09:00;;;;;;;13.23;7.20;;;;;;;10.65;39.30;99630.25;5065743;28;20202;-69
2022/03/25 01:11:27;;;;;;;7.83;6.87;;;;;;;10.72;39.36;99649.72;5059168;28;20715;-69
2022/03/25 01:13:54;;;;;;;12.37;7.30;;;;;;;10.66;39.97;99636.22;5060751;28;20196;-69
2022/03/25 01:16:21;;;;;;;8.03;6.83;;;;;;;10.62;39.88;99638.03;5059250;28;20200;-68
2022/03/25 01:18:48;;;;;;;8.93;7.33;;;;;;;10.60;39.63;99641.53;5068859;28;20631;-68
2022/03/25 01:21:16;;;;;;;8.87;7.33;;;;;;;10.53;40.14;99633.16;5058946;28;20213;-68
2022/03/25 01:23:44;;;;;;;12.53;7.80;;;;;;;10.50;40.57;99636.63;5064590;28;20200;-68
2022/03/25 01:26:11;;;;;;;7.20;6.60;;;;;;;10.40;40.78;99635.16;5059853;28;20646;-68
2022/03/25 01:28:38;;;;;;;9.63;6.80;;;;;;;10.34;41.00;99630.19;5065935;28;20641;-68
2022/03/25 01:31:06;;;;;;;7.60;7.07;;;;;;;10.32;41.23;99639.66;5065597;28;20206;-69
2022/03/25 01:33:33;;;;;;;10.20;7.43;;;;;;;10.21;40.97;99622.88;5066937;28;20204;-69
2022/03/25 01:36:00;;;;;;;10.13;7.80;;;;;;;10.19;41.05;99630.59;5062345;28;20215;-68
2022/03/25 01:38:27;;;;;;;10.80;7.80;;;;;;;10.22;41.15;99634.81;5060878;28;20197;-69
2022/03/25 01:40:55;;;;;;;13.70;7.87;;;;;;;10.25;40.96;99637.28;5061094;28;20217;-69
2022/03/25 01:43:23;;;;;;;13.07;7.63;;;;;;;10.21;40.42;99626.25;5063096;28;20204;-68
2022/03/25 01:45:49;;;;;;;10.07;7.80;;;;;;;10.21;40.68;99628.81;5059752;28;20202;-68
2022/03/25 01:48:17;;;;;;;12.07;7.80;;;;;;;10.34;40.51;99643.00;5062232;28;20208;-69
2022/03/25 01:50:46;;;;;;;8.80;7.57;;;;;;;10.35;40.75;99647.28;5057973;28;20192;-69
2022/03/25 01:53:16;;;;;;;11.70;7.40;;;;;;;10.34;40.76;99648.13;5062386;28;20268;-68
2022/03/25 01:55:49;;;;;;;7.63;7.00;;;;;;;10.34;40.82;99650.69;5069088;28;20279;-69
2022/03/25 01:58:18;;;;;;;10.83;8.17;;;;;;;10.23;40.65;99632.22;5061262;28;20230;-68
2022/03/25 02:00:45;;;;;;;10.83;8.10;;;;;;;10.36;41.04;99654.09;5063134;28;20217;-68
2022/03/25 02:03:13;;;;;;;9.33;8.40;;;;;;;10.37;40.88;99660.06;5063805;28;20215;-68
2022/03/25 02:05:40;;;;;;;8.00;7.20;;;;;;;10.32;41.06;99657.59;5059562;28;20208;-69
2022/03/25 02:08:08;;;;;;;9.67;7.27;;;;;;;10.31;41.29;99661.03;5065494;28;20627;-68
2022/03/25 02:10:35;;;;;;;10.60;6.93;;;;;;;10.11;41.70;99645.31;5062209;28;20196;-68
2022/03/25 02:13:02;;;;;;;9.07;8.13;;;;;;;10.06;42.33;99657.34;5053229;28;20197;-68
2022/03/25 02:15:34;;;;;;;9.20;8.27;;;;;;;9.88;42.62;99663.78;5065571;28;20282;-68
2022/03/25 02:18:05;;;;;;;11.70;7.87;;;;;;;9.79;42.08;99666.53;5069280;28;20200;-68
2022/03/25 02:20:32;;;;;;;7.80;7.10;;;;;;;9.63;42.46;99649.00;5057122;28;20196;-69
2022/03/25 02:23:01;;;;;;;9.37;8.03;;;;;;;9.57;43.15;99659.34;5061623;28;20287;-68
2022/03/25 02:25:29;;;;;;;14.27;7.37;;;;;;;9.44;43.21;99649.38;5067533;28;20199;-68
2022/03/25 02:27:57;;;;;;;10.60;7.57;;;;;;;9.42;42.96;99652.88;5065319;28;20783;-68
2022/03/25 02:30:24;;;;;;;7.73;7.13;;;;;;;9.37;43.49;99663.19;5061521;28;20291;-68
2022/03/25 02:32:51;;;;;;;9.07;7.43;;;;;;;9.35;43.55;99648.75;5055074;28;20561;-68
2022/03/25 02:35:18;;;;;;;8.73;7.87;;;;;;;9.40;43.21;99658.00;5058947;28;20293;-69
2022/03/25 02:37:45;;;;;;;12.47;8.40;;;;;;;9.38;43.69;99657.19;5062892;28;20282;-69
2022/03/25 02:40:13;;;;;;;9.63;7.93;;;;;;;9.36;43.45;99655.56;5065276;28;20199;-68
2022/03/25 02:42:40;;;;;;;14.53;8.40;;;;;;;9.35;42.75;99659.81;5060638;28;20208;-68
2022/03/25 02:45:08;;;;;;;9.07;7.90;;;;;;;9.49;42.62;99662.09;5065098;28;20210;-68
2022/03/25 02:47:35;;;;;;;8.43;7.63;;;;;;;9.57;42.64;99667.03;5059536;28;20282;-69
2022/03/25 02:50:02;;;;;;;14.87;8.37;;;;;;;9.43;43.47;99652.81;5063544;28;20196;-68
2022/03/25 02:52:29;;;;;;;16.30;10.87;;;;;;;9.48;43.41;99675.75;5059764;28;20667;-68
2022/03/25 02:54:56;;;;;;;9.10;7.83;;;;;;;9.41;43.21;99677.59;5066804;28;20290;-68
2022/03/25 02:57:24;;;;;;;10.20;8.17;;;;;;;9.40;43.23;99670.78;5068812;28;20714;-68
2022/03/25 02:59:51;;;;;;;8.87;7.90;;;;;;;9.34;43.76;99676.03;5062832;28;20283;-68
2022/03/25 03:02:18;;;;;;;8.47;7.67;;;;;;;9.33;43.66;99676.94;5060166;28;20220;-68
2022/03/25 03:04:45;;;;;;;7.83;7.20;;;;;;;9.28;43.46;99673.63;5067892;28;20291;-68
2022/03/25 03:07:12;;;;;;;8.60;7.00;;;;;;;9.27;43.72;99671.91;5067477;28;20192;-68
2022/03/25 03:09:39;;;;;;;9.60;8.63;;;;;;;9.18;44.12;99669.56;5062468;28;20224;-68
2022/03/25 03:12:07;;;;;;;10.47;8.20;;;;;;;9.04;45.00;99678.38;5062648;28;20292;-69
2022/03/25 03:14:36;;;;;;;11.70;8.33;;;;;;;8.94;44.93;99677.72;5061041;28;20211;-69
2022/03/25 03:17:04;;;;;;;11.50;8.90;;;;;;;8.92;45.19;99675.19;5064681;28;20219;-68
2022/03/25 03:19:31;;;;;;;9.87;9.00;;;;;;;8.88;45.25;99671.03;5059346;28;20553;-69
2022/03/25 03:21:58;;;;;;;13.17;9.23;;;;;;;8.78;45.70;99666.09;5065887;28;20223;-68
2022/03/25 03:24:26;;;;;;;9.43;8.40;;;;;;;8.78;45.31;99668.66;5061853;28;20212;-68
2022/03/25 03:26:53;;;;;;;14.00;8.37;;;;;;;8.79;45.17;99660.09;5061564;28;20257;-68
2022/03/25 03:29:20;;;;;;;10.90;8.83;;;;;;;8.65;45.67;99649.31;5061398;28;20212;-68
2022/03/25 03:31:48;;;;;;;14.47;8.93;;;;;;;8.68;45.65;99660.31;5064007;28;20615;-68
2022/03/25 03:34:15;;;;;;;20.03;10.07;;;;;;;8.73;45.67;99657.66;5061682;28;20672;-68
2022/03/25 03:36:42;;;;;;;16.70;10.63;;;;;;;8.72;46.04;99656.00;5064575;28;20303;-67
2022/03/25 03:39:11;;;;;;;10.73;9.00;;;;;;;8.77;45.71;99662.69;5064307;28;20283;-68
2022/03/25 03:41:38;;;;;;;9.30;8.23;;;;;;;8.81;45.36;99659.22;5066526;28;20329;-67
2022/03/25 03:44:06;;;;;;;12.47;8.47;;;;;;;8.83;45.19;99654.06;5069020;28;20192;-69
2022/03/25 03:46:33;;;;;;;9.40;8.50;;;;;;;8.81;45.25;99661.78;5061097;28;20196;-68
2022/03/25 03:49:01;;;;;;;11.07;7.80;;;;;;;8.82;45.33;99662.63;5059451;28;20288;-68
2022/03/25 03:51:28;;;;;;;14.77;7.70;;;;;;;8.64;45.47;99633.13;5069111;28;20669;-69
2022/03/25 03:53:55;;;;;;;9.57;8.20;;;;;;;8.78;45.70;99658.44;5062746;28;20235;-68
2022/03/25 03:56:23;;;;;;;9.83;8.70;;;;;;;8.81;45.98;99654.09;5058551;28;20343;-68
2022/03/25 03:58:50;;;;;;;9.73;8.00;;;;;;;8.75;45.72;99655.94;5060111;28;20224;-67
2022/03/25 04:01:17;;;;;;;16.27;8.80;;;;;;;8.78;46.01;99650.75;5061657;28;20258;-68
2022/03/25 04:03:44;;;;;;;10.47;7.90;;;;;;;8.68;45.90;99644.13;5067165;28;20577;-68
2022/03/25 04:06:13;;;;;;;8.73;7.77;;;;;;;8.71;45.92;99651.75;5059163;28;20196;-68
2022/03/25 04:08:40;;;;;;;7.53;6.83;;;;;;;8.76;45.83;99660.16;5065516;28;20242;-68
2022/03/25 04:11:07;;;;;;;15.57;7.83;;;;;;;8.77;45.58;99649.91;5065752;28;20196;-68
2022/03/25 04:13:34;;;;;;;8.60;7.77;;;;;;;8.69;45.70;99644.09;5068931;28;20295;-69
2022/03/25 04:16:01;;;;;;;9.03;8.20;;;;;;;8.78;45.75;99654.16;5069113;28;20193;-67
2022/03/25 04:18:28;;;;;;;11.33;8.37;;;;;;;8.79;45.57;99658.38;5063556;28;20200;-68
2022/03/25 04:20:55;;;;;;;21.43;8.60;;;;;;;8.79;45.98;99657.53;5061421;28;20580;-68
2022/03/25 04:23:23;;;;;;;15.20;7.30;;;;;;;8.80;46.29;99661.78;5062948;28;20402;-68
2022/03/25 04:25:50;;;;;;;9.00;8.20;;;;;;;8.85;46.72;99670.25;5064425;28;20200;-68
2022/03/25 04:28:18;;;;;;;10.20;8.33;;;;;;;8.90;46.46;99670.97;5061916;28;20196;-68
2022/03/25 04:30:45;;;;;;;11.33;8.27;;;;;;;8.95;46.56;99674.28;5067167;28;20192;-69
2022/03/25 04:33:12;;;;;;;14.17;9.87;;;;;;;8.99;46.96;99670.78;5063545;28;20199;-69
2022/03/25 04:35:39;;;;;;;15.23;11.23;;;;;;;9.01;47.26;99673.34;5060456;28;20687;-68
2022/03/25 04:38:06;;;;;;;16.57;11.30;;;;;;;9.03;47.13;99687.78;5061336;28;20288;-67
2022/03/25 04:40:35;;;;;;;17.27;10.13;;;;;;;9.00;46.55;99679.31;5066264;28;20195;-68
2022/03/25 04:43:03;;;;;;;13.60;9.87;;;;;;;9.02;46.77;99675.84;5065969;28;20208;-68
2022/03/25 04:45:31;;;;;;;20.30;11.97;;;;;;;8.95;47.04;99676.81;5064072;28;20282;-68
2022/03/25 04:47:58;;;;;;;16.80;10.67;;;;;;;8.90;46.70;99686.31;5064738;28;20554;-68
2022/03/25 04:50:26;;;;;;;19.07;10.90;;;;;;;8.88;46.99;99688.06;5060771;28;20215;-68
2022/03/25 04:52:53;;;;;;;12.73;9.67;;;;;;;8.95;47.23;99687.06;5057709;28;20741;-68
2022/03/25 04:55:21;;;;;;;11.70;9.43;;;;;;;8.93;47.06;99683.69;5059336;28;20205;-68
2022/03/25 04:57:49;;;;;;;9.90;8.23;;;;;;;8.93;46.83;99692.22;5061589;28;20282;-69
2022/03/25 05:00:18;;;;;;;8.90;8.13;;;;;;;8.98;46.87;99692.16;5064935;28;20197;-68
2022/03/25 05:02:45;;;;;;;11.83;8.90;;;;;;;8.95;46.90;99681.94;5058826;28;20254;-68
2022/03/25 05:05:13;;;;;;;18.20;12.53;;;;;;;9.09;46.85;99695.31;5061672;28;20201;-68
2022/03/25 05:07:44;;;;;;;14.77;11.20;;;;;;;9.20;46.43;99695.97;5058409;28;20215;-69
2022/03/25 05:10:13;;;;;;;12.47;9.30;;;;;;;9.20;46.34;99685.72;5066144;28;20586;-69
2022/03/25 05:12:40;;;;;;;14.37;8.47;;;;;;;9.36;46.20;99689.66;5060571;28;20197;-70
2022/03/25 05:15:10;;;;;;;11.80;9.37;;;;;;;9.47;45.99;99704.78;5057528;28;20652;-69
2022/03/25 05:17:44;;;;;;;9.77;8.93;;;;;;;9.53;46.22;99697.00;5063538;28;20283;-70
2022/03/25 05:20:12;;;;;;;14.70;8.53;;;;;;;9.63;45.61;99690.78;5063324;28;20230;-69
2022/03/25 05:22:39;;;;;;;10.93;8.90;;;;;;;9.74;44.60;99690.53;5064546;28;20354;-69
2022/03/25 05:25:07;;;;;;;13.77;7.83;;;;;;;9.86;45.02;99693.69;5058364;28;20200;-69
2022/03/25 05:27:43;;;;;;;12.63;10.20;;;;;;;10.05;44.39;99688.97;5065899;28;20335;-69
2022/03/25 05:30:12;;;;;;;20.80;10.10;;;;;;;10.13;44.35;99681.97;5061491;28;20645;-69
2022/03/25 05:32:41;;;;;;;12.93;8.97;;;;;;;10.38;44.25;99695.03;5062132;28;20195;-68
2022/03/25 05:35:09;;;;;;;10.97;8.67;;;;;;;10.58;43.59;99699.66;5058670;28;20201;-69
2022/03/25 05:37:37;;;;;;;9.10;8.43;;;;;;;10.77;43.35;99700.88;5059158;28;20722;-68
2022/03/25 05:40:05;;;;;;;12.10;9.57;;;;;;;10.87;43.10;99686.94;5062318;28;20201;-69
2022/03/25 05:42:33;;;;;;;12.03;8.07;;;;;;;11.15;42.95;99692.97;5066740;28;20310;-69
2022/03/25 05:44:59;;;;;;;13.10;9.00;;;;;;;11.26;41.44;99685.00;5064661;28;20212;-69
2022/03/25 05:47:28;;;;;;;10.67;8.50;;;;;;;11.51;41.48;99691.94;5062113;28;20617;-69
2022/03/25 05:49:55;;;;;;;9.50;8.17;;;;;;;11.72;41.58;99694.81;5059622;28;20197;-69
2022/03/25 05:52:22;;;;;;;12.20;8.73;;;;;;;11.85;42.07;99696.13;5061004;28;20216;-69
2022/03/25 05:54:49;;;;;;;20.07;12.77;;;;;;;12.06;40.72;99700.56;5053398;28;20208;-69
2022/03/25 05:57:16;;;;;;;27.83;14.27;;;;;;;12.28;40.67;99700.75;5058982;28;20199;-69
2022/03/25 05:59:43;;;;;;;11.37;9.70;;;;;;;12.45;40.24;99701.88;5062627;28;20203;-69
2022/03/25 06:02:10;;;;;;;9.70;7.90;;;;;;;12.54;39.48;99703.28;5060093;28;20238;-68
2022/03/25 06:04:39;;;;;;;11.93;8.03;;;;;;;12.70;39.37;99698.50;5063395;28;20200;-69
2022/03/25 06:07:05;;;;;;;8.40;7.47;;;;;;;12.83;38.17;99697.16;5062199;28;20275;-69
2022/03/25 06:09:32;;;;;;;13.77;7.57;;;;;;;12.93;38.89;99701.94;5063339;28;20250;-69
2022/03/25 06:11:59;;;;;;;11.07;8.03;;;;;;;13.11;39.10;99695.34;5059644;28;20211;-67
2022/03/25 06:14:26;;;;;;;10.50;7.70;;;;;;;13.32;38.75;99704.88;5060651;28;20192;-67
2022/03/25 06:16:54;;;;;;;9.30;8.00;;;;;;;13.47;39.46;99709.44;5056616;28;20284;-67
2022/03/25 06:19:20;;;;;;;9.97;7.53;;;;;;;13.66;38.53;99705.31;5064379;28;20231;-67
2022/03/25 06:21:49;;;;;;;9.20;8.23;;;;;;;13.84;37.74;99713.22;5064173;28;20287;-67
2022/03/25 06:24:16;;;;;;;8.73;7.83;;;;;;;13.98;38.53;99706.66;5058782;28;20201;-67
2022/03/25 06:26:43;;;;;;;9.27;7.50;;;;;;;14.18;37.25;99708.44;5060259;28;20224;-67
2022/03/25 06:29:09;;;;;;;10.83;8.37;;;;;;;14.25;37.71;99712.44;5062402;28;20204;-68
2022/03/25 06:31:36;;;;;;;11.40;8.80;;;;;;;14.36;38.42;99709.47;5062764;28;20200;-68
2022/03/25 06:34:04;;;;;;;9.83;8.20;;;;;;;14.57;37.44;99717.16;5059883;28;20627;-67
2022/03/25 06:36:31;;;;;;;8.43;7.17;;;;;;;14.70;35.59;99717.50;5057649;28;20196;-66
2022/03/25 06:38:59;;;;;;;7.70;7.00;;;;;;;14.84;35.18;99709.16;5060956;28;20212;-68
2022/03/25 06:41:26;;;;;;;7.93;7.27;;;;;;;14.97;35.15;99720.63;5063412;28;20207;-67
2022/03/25 06:43:54;;;;;;;6.90;6.43;;;;;;;15.05;35.32;99718.59;5055907;28;20216;-67
2022/03/25 06:46:21;;;;;;;8.23;7.47;;;;;;;15.13;35.68;99719.06;5069363;28;20203;-67
2022/03/25 06:48:48;;;;;;;11.80;7.70;;;;;;;15.23;36.54;99712.59;5064859;28;20197;-67
2022/03/25 06:51:16;;;;;;;8.20;7.30;;;;;;;15.37;35.47;99710.25;5068087;28;20200;-67
2022/03/25 06:53:44;;;;;;;13.37;8.30;;;;;;;15.55;36.61;99704.28;5069049;28;20196;-67
2022/03/25 06:56:13;;;;;;;11.57;7.57;;;;;;;15.64;36.44;99693.53;5063630;28;20688;-67
2022/03/25 06:58:41;;;;;;;10.37;7.93;;;;;;;15.85;36.01;99703.78;5060085;28;20277;-67
2022/03/25 07:01:08;;;;;;;18.93;7.77;;;;;;;15.99;35.30;99707.41;5062281;28;20296;-67
2022/03/25 07:03:36;;;;;;;10.07;7.67;;;;;;;16.25;35.79;99699.22;5064681;28;20223;-68
2022/03/25 07:06:04;;;;;;;11.87;7.37;;;;;;;16.43;34.14;99700.09;5061667;28;20224;-67
2022/03/25 07:08:32;;;;;;;12.23;7.67;;;;;;;16.56;33.81;99706.38;5060171;28;20218;-67
2022/03/25 07:11:00;;;;;;;7.93;7.10;;;;;;;16.57;33.59;99702.88;5056921;28;20209;-67
2022/03/25 07:13:29;;;;;;;8.87;7.47;;;;;;;16.69;34.04;99704.84;5058954;28;20291;-68
2022/03/25 07:15:56;;;;;;;13.70;7.97;;;;;;;16.86;33.42;99693.63;5057804;28;20246;-68
2022/03/25 07:18:23;;;;;;;8.03;7.30;;;;;;;16.96;33.94;99702.59;5066324;28;20279;-66
2022/03/25 07:20:50;;;;;;;9.70;7.83;;;;;;;17.11;33.72;99713.91;5065957;28;20284;-66
2022/03/25 07:23:17;;;;;;;12.70;7.37;;;;;;;17.23;32.78;99708.94;5066992;28;20234;-65
2022/03/25 07:25:44;;;;;;;10.20;7.40;;;;;;;17.35;32.84;99707.44;5062343;28;20208;-67
2022/03/25 07:28:10;;;;;;;8.60;7.73;;;;;;;17.47;32.48;99714.59;5059283;28;20202;-67
2022/03/25 07:30:39;;;;;;;11.93;7.60;;;;;;;17.58;31.76;99704.50;5064103;28;20204;-66
2022/03/25 07:33:06;;;;;;;8.47;7.70;;;;;;;17.64;32.56;99703.34;5062158;28;20200;-66
2022/03/25 07:35:33;;;;;;;10.27;7.33;;;;;;;17.77;32.30;99699.97;5056889;28;20204;-66
2022/03/25 07:38:00;;;;;;;8.63;7.83;;;;;;;18.02;33.37;99698.63;5052761;28;20289;-66
2022/03/25 07:40:27;;;;;;;8.30;7.50;;;;;;;18.20;31.08;99695.84;5068708;28;20294;-67
2022/03/25 07:42:53;;;;;;;9.70;7.80;;;;;;;18.38;29.41;99693.97;5065219;28;20308;-67
2022/03/25 07:45:20;;;;;;;11.67;7.00;;;;;;;18.52;29.65;99691.44;5063106;28;20208;-67
2022/03/25 07:47:50;;;;;;;13.83;8.77;;;;;;;18.66;29.50;99696.69;5061844;28;20283;-68
2022/03/25 07:50:18;;;;;;;20.93;7.97;;;;;;;18.72;29.04;99706.69;5064171;28;20197;-67
2022/03/25 07:52:46;;;;;;;18.03;8.67;;;;;;;18.87;28.79;99692.78;5063925;28;20203;-68
2022/03/25 07:55:13;;;;;;;9.13;7.77;;;;;;;18.92;28.35;99686.50;5066801;28;20306;-67
2022/03/25 07:57:41;;;;;;;15.93;8.03;;;;;;;18.98;27.82;99696.53;5062862;28;20319;-65
2022/03/25 08:00:11;;;;;;;11.63;8.53;;;;;;;19.07;28.63;99686.41;5070906;28;20295;-66
2022/03/25 08:02:38;;;;;;;12.10;7.97;;;;;;;19.20;28.05;99692.53;5058788;28;20226;-68
2022/03/25 08:05:09;;;;;;;14.43;8.40;;;;;;;19.38;27.71;99686.25;5064033;28;20254;-68
2022/03/25 08:07:41;;;;;;;13.40;8.43;;;;;;;19.44;27.93;99682.44;5066341;28;20258;-67
2022/03/25 08:10:09;;;;;;;9.47;7.80;;;;;;;19.54;28.57;99675.75;5061873;28;20287;-68
2022/03/25 08:12:36;;;;;;;9.23;8.30;;;;;;;19.74;29.95;99677.09;5068673;28;20564;-66
2022/03/25 08:15:06;;;;;;;10.70;8.60;;;;;;;19.82;29.15;99674.84;5063490;28;20292;-67
2022/03/25 08:17:45;;;;;;;8.60;7.80;;;;;;;19.95;28.30;99678.31;5054187;28;20651;-66
2022/03/25 08:20:14;;;;;;;21.83;9.33;;;;;;;20.06;29.07;99669.84;5060511;28;20207;-66
2022/03/25 08:22:41;;;;;;;18.53;9.17;;;;;;;20.14;27.30;99644.97;5067463;28;20201;-67
2022/03/25 08:27:58;;;;;;;13.90;8.17;;;;;;;20.16;28.37;99665.72;5062513;28;20723;-67
2022/03/25 08:30:26;;;;;;;15.80;9.20;;;;;;;20.27;27.24;99661.47;5066749;28;20196;-67
2022/03/25 08:32:53;;;;;;;11.60;8.57;;;;;;;20.21;27.10;99653.22;5056864;28;20193;-67
2022/03/25 08:35:22;;;;;;;32.77;10.73;;;;;;;20.19;26.19;99648.13;5063347;28;20668;-67
2022/03/25 08:37:48;;;;;;;16.67;9.87;;;;;;;20.22;27.24;99657.50;5060762;28;20291;-68
2022/03/25 08:40:15;;;;;;;50.43;13.20;;;;;;;20.30;26.90;99657.84;5062206;28;20704;-67
2022/03/25 08:42:42;;;;;;;24.27;11.80;;;;;;;20.39;26.07;99663.28;5063034;28;20203;-67
2022/03/25 08:45:13;;;;;;;33.00;11.37;;;;;;;20.36;25.13;99654.81;5056299;28;20693;-67
2022/03/25 08:47:40;;;;;;;52.87;14.13;;;;;;;20.33;24.52;99655.03;5056608;28;20205;-68
2022/03/25 08:50:09;;;;;;;21.13;11.67;;;;;;;20.39;25.51;99645.03;5066601;28;20200;-68
2022/03/25 08:52:38;;;;;;;44.73;11.47;;;;;;;20.52;26.14;99654.66;5059904;28;20669;-68
2022/03/25 08:55:06;;;;;;;32.27;12.23;;;;;;;20.58;26.64;99643.84;5056848;28;20685;-68
2022/03/25 08:57:33;;;;;;;14.27;10.47;;;;;;;20.61;25.90;99639.25;5061308;28;20634;-68
2022/03/25 09:00:00;;;;;;;19.00;10.50;;;;;;;20.77;27.07;99632.06;5066510;28;20744;-67
2022/03/25 09:02:27;;;;;;;19.20;10.90;;;;;;;20.80;26.50;99641.44;5061048;28;20200;-68
2022/03/25 09:04:54;;;;;;;22.13;9.83;;;;;;;20.91;27.36;99639.75;5067028;28;20219;-68
2022/03/25 09:07:21;;;;;;;65.27;13.97;;;;;;;20.86;26.51;99641.00;5063702;28;20204;-68
2022/03/25 09:09:49;;;;;;;16.03;9.83;;;;;;;20.85;26.21;99645.38;5056729;28;20198;-67
2022/03/25 09:12:16;;;;;;;10.63;9.53;;;;;;;20.86;25.94;99644.47;5059741;28;20292;-67
2022/03/25 09:14:43;;;;;;;22.53;10.50;;;;;;;21.03;27.60;99634.66;5063855;28;20284;-67
2022/03/25 09:17:10;;;;;;;14.17;10.03;;;;;;;21.21;28.05;99633.38;5060455;28;20679;-68
2022/03/25 09:19:37;;;;;;;10.97;8.97;;;;;;;21.21;27.14;99629.00;5061671;28;20731;-67
2022/03/25 09:22:04;;;;;;;19.20;9.37;;;;;;;21.30;26.77;99627.53;5063497;28;20200;-67
2022/03/25 09:24:31;;;;;;;45.97;11.40;;;;;;;21.26;26.17;99620.88;5059128;28;20616;-67
2022/03/25 09:26:59;;;;;;;26.57;11.67;;;;;;;21.37;28.58;99619.16;5058614;28;20667;-68
2022/03/25 09:29:26;;;;;;;10.33;9.03;;;;;;;21.44;26.16;99627.38;5067316;28;20206;-67
2022/03/25 09:31:53;;;;;;;10.83;9.77;;;;;;;21.45;25.67;99616.03;5061247;28;20217;-68
2022/03/25 09:37:05;;;;;;;14.83;10.70;;;;;;;21.57;26.03;99622.97;5059803;28;20228;-67
2022/03/25 09:39:32;;;;;;;19.83;10.73;;;;;;;21.79;26.71;99617.03;5060295;28;20201;-67
2022/03/25 09:42:02;;;;;;;14.70;10.67;;;;;;;21.63;24.26;99624.28;5066753;28;20292;-68
2022/03/25 09:44:29;;;;;;;10.40;9.27;;;;;;;21.65;25.25;99615.41;5065459;28;20553;-68
2022/03/25 09:46:56;;;;;;;12.00;9.50;;;;;;;21.56;25.33;99618.69;5057464;28;20285;-68
2022/03/25 09:49:23;;;;;;;21.80;11.00;;;;;;;21.65;26.16;99619.81;5055248;28;20210;-68
2022/03/25 09:51:50;;;;;;;11.30;9.63;;;;;;;21.69;23.36;99629.91;5057702;28;20214;-67
2022/03/25 09:54:18;;;;;;;12.10;10.17;;;;;;;21.57;24.55;99630.78;5058294;28;20293;-68
2022/03/25 09:56:45;;;;;;;9.83;9.03;;;;;;;21.62;24.93;99626.06;5060348;28;20203;-68
2022/03/25 09:59:18;;;;;;;13.23;9.77;;;;;;;21.76;25.22;99619.84;5061697;28;20611;-68
2022/03/25 10:01:45;;;;;;;11.63;9.57;;;;;;;21.70;26.04;99600.25;5066642;28;20289;-67
2022/03/25 10:04:37;;;;;;;12.00;9.30;;;;;;;21.76;23.67;99620.69;5061443;28;20600;-68
2022/03/25 10:07:15;;;;;;;10.37;9.37;;;;;;;21.69;23.97;99598.59;5058415;28;20203;-67
2022/03/25 10:09:42;;;;;;;19.80;10.37;;;;;;;21.72;24.75;99613.19;5060786;28;20335;-68
2022/03/25 10:12:23;;;;;;;17.50;9.70;;;;;;;21.89;25.58;99620.66;5058028;28;20217;-70
2022/03/25 10:14:53;;;;;;;13.57;8.03;;;;;;;21.84;25.05;99607.91;5060857;28;20302;-68
2022/03/25 10:17:20;;;;;;;12.83;9.63;;;;;;;21.80;25.24;99606.50;5060532;28;20218;-68
2022/03/25 10:19:49;;;;;;;10.63;9.63;;;;;;;21.62;24.51;99622.63;5062027;28;20226;-68
2022/03/25 10:22:18;;;;;;;8.53;7.27;;;;;;;21.60;24.16;99627.97;5061442;28;20208;-67
2022/03/25 10:24:47;;;;;;;14.07;7.40;;;;;;;21.65;22.24;99620.63;5057324;28;20213;-68
2022/03/25 10:27:18;;;;;;;19.43;7.27;;;;;;;21.52;22.67;99617.22;5061263;28;20245;-67
2022/03/25 10:29:46;;;;;;;10.07;6.63;;;;;;;21.38;22.05;99625.22;5063398;28;20198;-69
2022/03/25 10:32:18;;;;;;;8.07;5.63;;;;;;;21.30;22.15;99611.88;5064373;28;20256;-68
2022/03/25 10:34:45;;;;;;;7.10;5.60;;;;;;;21.29;21.02;99610.22;5063939;28;20295;-68
2022/03/25 10:37:13;;;;;;;13.20;5.97;;;;;;;21.39;20.27;99626.88;5066565;28;20300;-68
2022/03/25 10:39:51;;;;;;;6.37;5.77;;;;;;;21.34;20.55;99613.34;5057882;28;20217;-68
2022/03/25 10:42:17;;;;;;;10.13;6.03;;;;;;;21.29;21.01;99608.44;5060503;28;20198;-66
2022/03/25 10:44:44;;;;;;;6.70;5.80;;;;;;;21.38;21.73;99614.78;5057003;28;20225;-66
2022/03/25 10:47:26;;;;;;;6.80;5.60;;;;;;;21.40;21.32;99612.91;5055030;28;20741;-66
2022/03/25 10:49:53;;;;;;;22.53;6.17;;;;;;;21.23;20.77;99621.06;5063748;28;20687;-67
2022/03/25 10:52:23;;;;;;;6.53;4.90;;;;;;;21.33;21.52;99627.31;5059938;28;20302;-68
2022/03/25 10:54:50;;;;;;;9.33;5.57;;;;;;;21.35;21.41;99599.34;5061363;28;20206;-68
2022/03/25 10:57:17;;;;;;;41.00;8.17;;;;;;;21.22;20.82;99615.03;5056406;28;20212;-67
2022/03/25 10:59:57;;;;;;;5.90;5.33;;;;;;;21.22;19.85;99604.63;5063443;28;20202;-68
2022/03/25 11:02:26;;;;;;;17.53;5.17;;;;;;;21.22;20.68;99598.56;5062097;28;20202;-68
2022/03/25 11:04:55;;;;;;;7.90;6.37;;;;;;;21.20;20.16;99603.88;5064677;28;20257;-67
2022/03/25 11:07:23;;;;;;;6.67;5.20;;;;;;;21.06;20.50;99595.34;5063239;28;20685;-68
2022/03/25 11:09:52;;;;;;;5.83;4.43;;;;;;;21.14;20.10;99603.47;5062873;28;20254;-67
2022/03/25 11:12:20;;;;;;;9.00;5.40;;;;;;;21.23;19.55;99602.81;5062158;28;20205;-68
2022/03/25 11:14:47;;;;;;;9.30;5.47;;;;;;;21.16;19.19;99604.22;5065594;28;20596;-68
2022/03/25 11:17:15;;;;;;;5.10;4.70;;;;;;;21.21;19.33;99596.88;5062979;28;20202;-67
2022/03/25 11:19:45;;;;;;;7.07;4.33;;;;;;;21.24;18.77;99597.50;5067918;28;20208;-67
2022/03/25 11:22:14;;;;;;;5.47;3.60;;;;;;;21.19;18.29;99586.56;5064335;28;20224;-68
2022/03/25 11:24:48;;;;;;;4.10;3.70;;;;;;;21.24;18.44;99600.13;5067147;28;20762;-68
2022/03/25 11:27:20;;;;;;;5.10;3.53;;;;;;;21.26;19.34;99589.59;5064933;28;20304;-69
2022/03/25 11:29:51;;;;;;;13.30;3.67;;;;;;;21.25;17.51;99598.34;5066626;28;20206;-68
2022/03/25 11:32:18;;;;;;;6.03;3.20;;;;;;;21.29;18.01;99584.97;5061800;28;20208;-68
2022/03/25 11:35:08;;;;;;;4.33;3.93;;;;;;;21.24;17.20;99586.25;5065596;28;20229;-68
2022/03/25 11:37:36;;;;;;;16.83;4.33;;;;;;;21.08;17.63;99590.84;5063651;28;20280;-68